aviador You're here:

KM25 Decoded Metar

in
Report Time2018-05-28 05:15:00
UTC Time2018-05-28 05:13:14
Flight Rules vfr VFR
WindCalm
Visibility9999 m
Phenomena:N/A
Clouds:N/A
CeilingNone
Temp22°C
Dew Point22°C (100% RH)
QNH1014 hPa
Raw Report
KM25 280515Z AUTO 00000KT 10SM CLR 22/22 A2993 RMK AO2 PWINO=

Extra information for KM25:More info

Social comments